createdAt,value
2023-02-19T00:00:55.630Z,58.72
2023-02-19T00:03:22.183Z,52.67
2023-02-19T00:05:48.640Z,49.95
2023-02-19T00:08:15.068Z,53.28
2023-02-19T00:10:41.516Z,67.07
2023-02-19T00:13:08.010Z,49.70
2023-02-19T00:15:34.674Z,52.17
2023-02-19T00:18:01.134Z,52.00
2023-02-19T00:20:27.584Z,44.72
2023-02-19T00:22:54.062Z,47.65
2023-02-19T00:25:20.510Z,47.10
2023-02-19T00:27:46.990Z,46.17
2023-02-19T00:30:13.598Z,48.25
2023-02-19T00:32:40.166Z,49.00
2023-02-19T00:35:08.102Z,47.00
2023-02-19T00:37:34.526Z,47.40
2023-02-19T00:40:01.016Z,49.45
2023-02-19T00:42:27.604Z,46.03
2023-02-19T00:44:54.200Z,48.10
2023-02-19T00:47:20.636Z,43.08
2023-02-19T00:49:47.149Z,45.28
2023-02-19T00:52:13.635Z,49.10
2023-02-19T00:54:40.038Z,43.40
2023-02-19T00:57:06.481Z,44.03
2023-02-19T00:59:32.908Z,43.42
2023-02-19T01:01:59.365Z,46.10
2023-02-19T01:04:25.929Z,43.05
2023-02-19T01:06:52.374Z,49.10
2023-02-19T01:09:18.949Z,41.60
2023-02-19T01:11:45.562Z,46.50
2023-02-19T01:14:12.089Z,46.03
2023-02-19T01:16:38.564Z,44.00
2023-02-19T01:19:04.986Z,44.15
2023-02-19T01:21:31.669Z,42.88
2023-02-19T01:23:58.562Z,41.00
2023-02-19T01:26:26.232Z,43.25
2023-02-19T01:28:52.830Z,42.47
2023-02-19T01:31:20.627Z,38.28
2023-02-19T01:33:47.692Z,33.05
2023-02-19T01:36:14.618Z,40.80
2023-02-19T01:38:41.128Z,40.88
2023-02-19T01:41:10.656Z,38.30
2023-02-19T01:43:56.122Z,42.38
2023-02-19T01:46:25.120Z,39.72
2023-02-19T01:48:51.778Z,42.28
2023-02-19T01:51:19.582Z,42.35
2023-02-19T01:53:47.771Z,38.05
2023-02-19T01:56:15.388Z,38.85
2023-02-19T01:58:42.068Z,37.90
2023-02-19T02:01:08.990Z,42.45
2023-02-19T02:03:36.711Z,40.30
2023-02-19T02:06:07.372Z,38.53
2023-02-19T02:08:52.716Z,34.80
2023-02-19T02:11:19.868Z,33.20
2023-02-19T02:13:46.387Z,33.97
2023-02-19T02:16:12.801Z,48.55
2023-02-19T02:18:48.114Z,36.70
2023-02-19T02:21:33.751Z,32.70
2023-02-19T02:24:22.775Z,37.90
2023-02-19T02:26:52.500Z,32.92
2023-02-19T02:29:31.829Z,34.03
2023-02-19T02:32:06.539Z,35.03
2023-02-19T02:34:41.530Z,31.13
2023-02-19T02:37:09.471Z,33.95
2023-02-19T02:39:36.821Z,31.88
2023-02-19T02:42:21.955Z,34.35
2023-02-19T02:45:06.709Z,29.40
2023-02-19T02:47:41.262Z,38.25
2023-02-19T02:50:09.529Z,31.83
2023-02-19T02:52:55.768Z,26.38
2023-02-19T02:55:22.430Z,29.80
2023-02-19T02:57:49.147Z,29.40
2023-02-19T03:00:15.633Z,28.58
2023-02-19T03:02:43.567Z,26.95
2023-02-19T03:05:32.145Z,30.35
2023-02-19T03:08:07.587Z,29.17
2023-02-19T03:10:43.023Z,27.27
2023-02-19T04:35:33.417Z,27.48
2023-02-19T04:38:00.150Z,24.27
2023-02-19T04:40:26.604Z,27.70
2023-02-19T04:42:53.031Z,31.15
2023-02-19T04:45:19.436Z,26.25
2023-02-19T04:47:45.895Z,26.60
2023-02-19T04:50:12.488Z,27.38
2023-02-19T04:52:39.406Z,24.92
2023-02-19T04:55:06.245Z,29.00
2023-02-19T04:57:32.741Z,31.20
2023-02-19T04:59:59.246Z,29.70
2023-02-19T05:02:25.769Z,30.98
2023-02-19T05:04:52.318Z,28.25
2023-02-19T05:07:18.833Z,26.13
2023-02-19T05:09:45.304Z,24.88
2023-02-19T05:12:11.732Z,27.60
2023-02-19T05:14:38.136Z,25.27
2023-02-19T05:17:04.545Z,26.23
2023-02-19T05:19:31.037Z,23.52
2023-02-19T05:21:57.446Z,23.10
2023-02-19T05:24:24.469Z,24.65
2023-02-19T05:26:51.092Z,27.10
2023-02-19T05:29:17.508Z,22.83
2023-02-19T05:31:44.006Z,28.95
2023-02-19T05:34:10.555Z,25.65
2023-02-19T05:36:37.488Z,26.88
2023-02-19T05:39:06.294Z,22.52
2023-02-19T05:41:32.879Z,25.33
2023-02-19T05:43:59.381Z,20.98
2023-02-19T05:46:27.785Z,23.10
2023-02-19T05:48:54.358Z,24.08
2023-02-19T05:51:21.999Z,32.72
2023-02-19T05:53:48.597Z,22.85
2023-02-19T05:56:23.967Z,20.92
2023-02-19T05:58:50.746Z,22.10
2023-02-19T06:01:18.187Z,24.65
2023-02-19T06:03:44.702Z,20.25
2023-02-19T06:06:14.878Z,22.02
2023-02-19T06:08:41.307Z,21.80
2023-02-19T06:11:08.141Z,22.88
2023-02-19T06:13:35.060Z,24.30
2023-02-19T06:16:05.289Z,23.88
2023-02-19T06:18:31.749Z,23.13
2023-02-19T06:21:05.007Z,23.33
2023-02-19T06:23:31.548Z,24.60
2023-02-19T06:26:06.957Z,30.58
2023-02-19T06:28:33.447Z,26.48
2023-02-19T06:30:59.922Z,30.02
2023-02-19T06:33:27.302Z,23.70
2023-02-19T06:35:54.033Z,23.90
2023-02-19T06:38:23.224Z,28.02
2023-02-19T19:41:15.273Z,31.50
2023-02-19T19:43:41.725Z,29.08
2023-02-19T19:46:11.384Z,27.77
2023-02-19T19:48:40.839Z,25.50
2023-02-19T19:51:08.576Z,29.20
2023-02-19T19:53:35.037Z,33.70
2023-02-19T19:56:01.720Z,29.52
2023-02-19T19:58:28.256Z,33.15
2023-02-19T20:00:54.805Z,33.78
2023-02-19T20:03:21.260Z,30.50
2023-02-19T20:05:50.326Z,35.97
2023-02-19T20:08:17.613Z,31.55
2023-02-19T20:10:45.457Z,32.30
2023-02-19T20:13:12.110Z,33.55
2023-02-19T20:15:38.668Z,29.58
2023-02-19T20:18:05.201Z,24.17
2023-02-19T20:20:31.649Z,26.15
2023-02-19T20:22:58.134Z,27.25
2023-02-19T20:25:24.967Z,32.65
2023-02-19T20:27:51.879Z,26.05
2023-02-19T20:30:19.520Z,34.08
2023-02-19T20:32:46.143Z,24.30
2023-02-19T20:35:12.585Z,23.08
2023-02-19T20:37:39.652Z,30.45
2023-02-19T20:40:07.044Z,29.02
2023-02-19T20:42:33.603Z,30.92
2023-02-19T20:45:00.589Z,29.67
2023-02-19T20:47:28.072Z,26.08
2023-02-19T20:49:54.572Z,28.05
2023-02-19T20:52:21.880Z,25.50
2023-02-19T20:54:48.369Z,26.25
2023-02-19T20:57:14.824Z,26.33
2023-02-19T20:59:41.344Z,27.95
2023-02-19T21:02:18.547Z,24.35
2023-02-19T21:04:45.095Z,26.13
2023-02-19T21:07:11.612Z,26.88
2023-02-19T21:09:38.108Z,27.15
2023-02-19T21:12:04.715Z,28.45
2023-02-19T21:14:31.724Z,21.85
2023-02-19T21:16:58.169Z,25.45
2023-02-19T21:19:24.624Z,28.55
2023-02-19T21:21:51.101Z,25.23
2023-02-19T21:24:17.619Z,54.17
2023-02-19T21:26:44.854Z,44.55
2023-02-19T21:29:14.802Z,22.88
2023-02-19T21:31:42.615Z,19.17
2023-02-19T21:34:10.453Z,21.95
2023-02-19T21:36:37.388Z,11.07
2023-02-19T21:39:04.796Z,11.23
2023-02-19T21:41:31.403Z,7.43
2023-02-19T21:43:58.187Z,6.03
2023-02-19T21:46:25.121Z,5.22
2023-02-19T21:48:52.904Z,3.88
2023-02-19T21:51:20.280Z,4.28
2023-02-19T21:53:46.704Z,5.38
2023-02-19T21:56:23.314Z,1.77
2023-02-19T21:58:49.816Z,2.78
2023-02-19T22:01:20.393Z,1.88
2023-02-19T22:03:46.981Z,5.18
2023-02-19T22:06:16.346Z,1.05
2023-02-19T22:08:43.703Z,3.40
2023-02-19T22:11:10.237Z,4.15
2023-02-19T22:13:36.721Z,2.55
2023-02-19T22:16:03.466Z,3.97
2023-02-19T22:18:29.933Z,2.65
2023-02-19T22:20:56.420Z,2.88
2023-02-19T22:23:23.032Z,4.45
2023-02-19T22:25:49.527Z,3.60
2023-02-19T22:28:15.935Z,4.13
2023-02-19T22:30:42.892Z,5.28
2023-02-19T22:33:09.561Z,2.95
2023-02-19T22:35:36.090Z,3.97
2023-02-19T22:38:02.540Z,3.85
2023-02-19T22:40:29.033Z,4.70
2023-02-19T22:42:55.517Z,4.93
2023-02-19T22:45:22.148Z,5.15
2023-02-19T22:47:48.745Z,11.45
2023-02-19T22:50:19.637Z,8.77
2023-02-19T22:52:46.117Z,12.53
2023-02-19T22:55:12.532Z,9.80
2023-02-19T22:57:39.015Z,6.40
2023-02-19T23:00:06.411Z,9.93
2023-02-19T23:02:33.007Z,8.70
2023-02-19T23:04:59.436Z,5.85
2023-02-19T23:07:25.866Z,5.85
2023-02-19T23:09:52.378Z,10.15
2023-02-19T23:12:18.876Z,5.30
2023-02-19T23:14:46.723Z,12.75
2023-02-19T23:17:13.228Z,8.15
2023-02-19T23:19:39.712Z,6.93
2023-02-19T23:22:06.505Z,7.28
2023-02-19T23:24:32.952Z,9.25
2023-02-19T23:27:00.705Z,8.50
2023-02-19T23:29:27.941Z,8.50
2023-02-19T23:31:55.128Z,11.23
2023-02-19T23:34:21.911Z,12.35
2023-02-19T23:36:49.707Z,8.90
2023-02-19T23:39:17.552Z,9.63
2023-02-19T23:41:47.866Z,11.85
2023-02-19T23:44:14.460Z,10.10
2023-02-19T23:46:40.937Z,8.63
2023-02-19T23:49:07.480Z,10.05
2023-02-19T23:51:34.054Z,8.88
2023-02-19T23:54:00.536Z,10.38
2023-02-19T23:56:28.261Z,9.95
2023-02-19T23:58:54.726Z,9.80
